Time;durP1;ratioP1;P1;durP2;ratioP2;P2;SDS_P1;SDS_P2;PMS_P1;PMS_P2;Temp;Humidity;BMP_temperature;BMP_pressure;BME280_temperature;BME280_humidity;BME280_pressure;Samples;Min_cycle;Max_cycle;Signal;HPM_P1;HPM_P2
2023/03/29 00:00:59;;;;;;;;;5.67;3.67;;;;;;;;117801;1193;25026;-63
2023/03/29 00:03:29;;;;;;;;;5.00;5.00;;;;;;;;117880;1180;25589;-64
2023/03/29 00:06:02;;;;;;;;;7.00;6.00;;;;;;;;117629;1181;25417;-64
2023/03/29 00:08:32;;;;;;;;;3.25;3.25;;;;;;;;117453;1193;25529;-63
2023/03/29 00:11:01;;;;;;;;;6.33;4.00;;;;;;;;117426;1185;24705;-62
2023/03/29 00:13:30;;;;;;;;;8.00;4.00;;;;;;;;117432;1186;25032;-63
2023/03/29 00:15:58;;;;;;;;;5.00;5.00;;;;;;;;117411;1193;24981;-63
2023/03/29 00:18:26;;;;;;;;;4.50;4.00;;;;;;;;117407;1181;25335;-64
2023/03/29 00:20:56;;;;;;;;;7.00;6.50;;;;;;;;117410;1180;24893;-63
2023/03/29 00:23:25;;;;;;;;;6.00;5.00;;;;;;;;117775;1180;25896;-63
2023/03/29 00:25:54;;;;;;;;;5.00;5.00;;;;;;;;117817;1193;25424;-64
2023/03/29 00:28:22;;;;;;;;;4.00;4.00;;;;;;;;117842;1180;24969;-64
2023/03/29 00:30:51;;;;;;;;;5.50;4.00;;;;;;;;117528;1180;25342;-62
2023/03/29 00:33:20;;;;;;;;;6.00;6.00;;;;;;;;117817;1181;25378;-63
2023/03/29 00:35:52;;;;;;;;;4.00;4.00;;;;;;;;117523;1180;25286;-63
2023/03/29 00:38:20;;;;;;;;;6.67;4.33;;;;;;;;117830;1193;25256;-64
2023/03/29 00:40:49;;;;;;;;;5.00;3.00;;;;;;;;117851;1180;25923;-63
2023/03/29 00:43:17;;;;;;;;;4.00;4.00;;;;;;;;117864;1180;25236;-63
2023/03/29 00:45:46;;;;;;;;;8.00;5.50;;;;;;;;117489;1187;25357;-63
2023/03/29 00:48:16;;;;;;;;;5.00;3.00;;;;;;;;117789;1180;25210;-64
2023/03/29 00:50:58;;;;;;;;;3.00;3.00;;;;;;;;117743;1190;25425;-63
2023/03/29 00:53:32;;;;;;;;;6.00;5.00;;;;;;;;117788;1193;24716;-63
2023/03/29 00:56:13;;;;;;;;;4.00;3.00;;;;;;;;117815;1180;25179;-64
2023/03/29 00:59:02;;;;;;;;;6.00;4.50;;;;;;;;117438;1180;26034;-63
2023/03/29 01:01:40;;;;;;;;;4.00;4.00;;;;;;;;117386;1183;25003;-64
2023/03/29 01:04:33;;;;;;;;;4.00;4.00;;;;;;;;117444;1181;25057;-63
2023/03/29 01:07:04;;;;;;;;;4.50;4.00;;;;;;;;117407;1193;25664;-63
2023/03/29 01:09:36;;;;;;;;;5.67;3.33;;;;;;;;117456;1190;25060;-64
2023/03/29 01:12:13;;;;;;;;;2.00;2.00;;;;;;;;117442;1193;25620;-63
2023/03/29 01:14:49;;;;;;;;;6.00;4.67;;;;;;;;117472;1185;25395;-64
2023/03/29 01:17:20;;;;;;;;;7.33;6.00;;;;;;;;117817;1180;25612;-63
2023/03/29 01:19:56;;;;;;;;;3.33;3.33;;;;;;;;117826;1181;25638;-63
2023/03/29 01:22:43;;;;;;;;;3.00;2.50;;;;;;;;117822;1180;25106;-63
2023/03/29 01:25:12;;;;;;;;;5.50;4.50;;;;;;;;117486;1180;25767;-63
2023/03/29 01:27:46;;;;;;;;;6.00;4.00;;;;;;;;117823;1180;25414;-63
2023/03/29 01:30:34;;;;;;;;;8.00;4.00;;;;;;;;117841;1180;24943;-63
2023/03/29 01:33:09;;;;;;;;;3.33;3.33;;;;;;;;117824;1193;24898;-63
2023/03/29 01:36:00;;;;;;;;;6.00;4.00;;;;;;;;117550;1193;25603;-63
2023/03/29 01:38:49;;;;;;;;;5.00;4.00;;;;;;;;117575;1180;25033;-66
2023/03/29 01:41:19;;;;;;;;;5.00;3.00;;;;;;;;117606;1193;26290;-67
2023/03/29 01:44:09;;;;;;;;;3.00;3.00;;;;;;;;117562;1193;25204;-72
2023/03/29 01:46:51;;;;;;;;;4.00;4.00;;;;;;;;117536;1181;24969;-63
2023/03/29 01:49:34;;;;;;;;;5.00;4.00;;;;;;;;117785;1180;25274;-64
2023/03/29 01:52:36;;;;;;;;;4.00;4.00;;;;;;;;117807;1185;25386;-63
2023/03/29 01:55:12;;;;;;;;;5.00;4.00;;;;;;;;117466;1186;24915;-63
2023/03/29 01:57:42;;;;;;;;;4.50;3.50;;;;;;;;117507;1181;24761;-64
2023/03/29 02:00:14;;;;;;;;;6.50;5.00;;;;;;;;117521;1181;24675;-65
2023/03/29 02:02:44;;;;;;;;;3.00;3.00;;;;;;;;117490;1190;25220;-64
2023/03/29 02:05:15;;;;;;;;;5.67;3.33;;;;;;;;117819;1180;25136;-65
2023/03/29 02:07:45;;;;;;;;;3.67;3.00;;;;;;;;117870;1180;25221;-63
2023/03/29 02:10:15;;;;;;;;;3.00;3.00;;;;;;;;117489;1180;24835;-63
2023/03/29 02:12:43;;;;;;;;;3.00;3.00;;;;;;;;117818;1193;25373;-64
2023/03/29 02:15:14;;;;;;;;;4.67;2.67;;;;;;;;117828;1192;26144;-64
2023/03/29 02:17:43;;;;;;;;;3.00;3.00;;;;;;;;117821;1192;25329;-64
2023/03/29 02:20:21;;;;;;;;;3.50;3.50;;;;;;;;117831;1192;25924;-64
2023/03/29 02:23:12;;;;;;;;;4.00;4.00;;;;;;;;117864;1180;25214;-64
2023/03/29 02:25:42;;;;;;;;;3.33;3.00;;;;;;;;117818;1180;25614;-63
2023/03/29 02:28:11;;;;;;;;;4.50;4.50;;;;;;;;117487;1193;25657;-63
2023/03/29 02:31:04;;;;;;;;;5.00;4.00;;;;;;;;117827;1180;25528;-63
2023/03/29 02:33:50;;;;;;;;;5.25;4.00;;;;;;;;117819;1180;25411;-64
2023/03/29 02:36:28;;;;;;;;;4.00;4.00;;;;;;;;117832;1180;25616;-64
2023/03/29 02:38:59;;;;;;;;;4.33;4.33;;;;;;;;117815;1193;25298;-63
2023/03/29 02:41:28;;;;;;;;;4.33;2.33;;;;;;;;117806;1180;25326;-64
2023/03/29 02:43:57;;;;;;;;;4.50;4.00;;;;;;;;117573;1192;24884;-64
2023/03/29 02:46:26;;;;;;;;;5.00;3.75;;;;;;;;117603;1181;25087;-66
2023/03/29 02:48:56;;;;;;;;;3.67;3.67;;;;;;;;117861;1180;25327;-69
2023/03/29 02:51:29;;;;;;;;;4.25;3.75;;;;;;;;117513;1180;25049;-65
2023/03/29 02:54:14;;;;;;;;;3.00;3.00;;;;;;;;117821;1180;25335;-61
2023/03/29 02:56:48;;;;;;;;;3.33;3.33;;;;;;;;117779;1187;25620;-63
2023/03/29 02:59:21;;;;;;;;;4.00;4.00;;;;;;;;117804;1180;25150;-63
2023/03/29 03:01:51;;;;;;;;;5.00;3.50;;;;;;;;117848;1180;24949;-63
2023/03/29 03:04:19;;;;;;;;;1.67;1.00;;;;;;;;117818;1193;25348;-64
2023/03/29 03:06:48;;;;;;;;;3.50;2.00;;;;;;;;117809;1180;25819;-63
2023/03/29 03:09:18;;;;;;;;;4.00;3.00;;;;;;;;117843;1180;25845;-64
2023/03/29 03:11:46;;;;;;;;;4.00;4.00;;;;;;;;117445;1180;25272;-63
2023/03/29 03:14:15;;;;;;;;;4.67;4.67;;;;;;;;117432;1180;25739;-63
2023/03/29 03:16:44;;;;;;;;;4.33;4.33;;;;;;;;117447;1187;24683;-63
2023/03/29 03:19:13;;;;;;;;;4.00;3.00;;;;;;;;117426;1193;24870;-63
2023/03/29 03:21:42;;;;;;;;;5.00;5.00;;;;;;;;117440;1180;24992;-64
2023/03/29 03:24:10;;;;;;;;;3.00;2.00;;;;;;;;117422;1187;25026;-63
2023/03/29 03:26:38;;;;;;;;;4.00;2.50;;;;;;;;117602;1180;25341;-63
2023/03/29 03:29:07;;;;;;;;;5.33;3.00;;;;;;;;117826;1180;25161;-63
2023/03/29 03:31:35;;;;;;;;;4.00;3.00;;;;;;;;117808;1180;25390;-63
2023/03/29 03:34:04;;;;;;;;;4.00;4.00;;;;;;;;117821;1180;25712;-63
2023/03/29 03:36:33;;;;;;;;;4.33;2.67;;;;;;;;117806;1180;25598;-63
2023/03/29 03:39:04;;;;;;;;;4.00;4.00;;;;;;;;117508;1193;25269;-63
2023/03/29 03:41:33;;;;;;;;;5.75;3.50;;;;;;;;117818;1180;24949;-64
2023/03/29 03:44:01;;;;;;;;;4.00;4.00;;;;;;;;117793;1181;24719;-64
2023/03/29 03:46:30;;;;;;;;;4.00;4.00;;;;;;;;117799;1180;24836;-64
2023/03/29 03:48:59;;;;;;;;;4.00;4.00;;;;;;;;117812;1192;26232;-64
2023/03/29 03:51:27;;;;;;;;;4.33;2.00;;;;;;;;117816;1180;25303;-64
2023/03/29 03:53:55;;;;;;;;;4.00;4.00;;;;;;;;117740;1180;25206;-64
2023/03/29 03:56:24;;;;;;;;;5.00;4.50;;;;;;;;117814;1180;25071;-64
2023/03/29 03:58:53;;;;;;;;;5.00;5.00;;;;;;;;117830;1180;25399;-64
2023/03/29 04:01:22;;;;;;;;;4.67;3.67;;;;;;;;117759;1180;25633;-64
2023/03/29 04:03:50;;;;;;;;;5.00;4.00;;;;;;;;117843;1180;24882;-64
2023/03/29 04:06:19;;;;;;;;;4.00;3.50;;;;;;;;117836;1180;26040;-63
2023/03/29 04:08:47;;;;;;;;;4.00;3.00;;;;;;;;117896;1181;25405;-64
2023/03/29 04:11:16;;;;;;;;;5.00;4.50;;;;;;;;117518;1180;26407;-64
2023/03/29 04:13:45;;;;;;;;;3.00;3.00;;;;;;;;117824;1180;26353;-64
2023/03/29 04:16:14;;;;;;;;;4.50;4.00;;;;;;;;117847;1180;25516;-64
2023/03/29 04:18:42;;;;;;;;;4.00;4.00;;;;;;;;117500;1190;25166;-64
2023/03/29 04:21:11;;;;;;;;;3.00;3.00;;;;;;;;117852;1180;26485;-64
2023/03/29 04:23:41;;;;;;;;;2.67;2.00;;;;;;;;117842;1187;24976;-64
2023/03/29 04:26:10;;;;;;;;;3.00;3.00;;;;;;;;117826;1180;24908;-63
2023/03/29 04:28:40;;;;;;;;;2.50;2.50;;;;;;;;117854;1181;25783;-60
2023/03/29 04:31:13;;;;;;;;;4.00;4.00;;;;;;;;117787;1188;25240;-61
2023/03/29 04:33:41;;;;;;;;;4.00;4.00;;;;;;;;117502;1180;25394;-63
2023/03/29 04:36:10;;;;;;;;;5.00;3.67;;;;;;;;117789;1180;24733;-61
2023/03/29 04:38:40;;;;;;;;;4.00;4.00;;;;;;;;117764;1186;25285;-60
2023/03/29 04:41:14;;;;;;;;;5.00;3.00;;;;;;;;117786;1193;26500;-61
2023/03/29 04:43:45;;;;;;;;;5.00;3.00;;;;;;;;117758;1180;25490;-61
2023/03/29 04:46:14;;;;;;;;;2.00;2.00;;;;;;;;117496;1180;25127;-61
2023/03/29 04:48:42;;;;;;;;;3.00;3.00;;;;;;;;117797;1180;24788;-61
2023/03/29 04:51:11;;;;;;;;;3.50;3.50;;;;;;;;117839;1180;25284;-61
2023/03/29 04:53:40;;;;;;;;;5.00;3.00;;;;;;;;117800;1180;25599;-61
2023/03/29 04:56:09;;;;;;;;;4.00;4.00;;;;;;;;117843;1193;25152;-61
2023/03/29 04:58:37;;;;;;;;;2.50;2.50;;;;;;;;117795;1193;25405;-61
2023/03/29 05:01:06;;;;;;;;;4.50;4.00;;;;;;;;117814;1181;25055;-61
2023/03/29 05:03:34;;;;;;;;;4.67;4.00;;;;;;;;117805;1192;24836;-61
2023/03/29 05:06:07;;;;;;;;;2.00;2.00;;;;;;;;117857;1180;25456;-61
2023/03/29 05:08:38;;;;;;;;;4.00;4.00;;;;;;;;117498;1180;25386;-61
2023/03/29 05:11:08;;;;;;;;;3.67;3.67;;;;;;;;117822;1180;25097;-61
2023/03/29 05:13:37;;;;;;;;;3.00;3.00;;;;;;;;117475;1180;25487;-61
2023/03/29 05:16:06;;;;;;;;;2.00;0.50;;;;;;;;117823;1181;25280;-61
2023/03/29 05:18:35;;;;;;;;;3.50;3.50;;;;;;;;117858;1180;24819;-65
2023/03/29 05:21:04;;;;;;;;;3.00;3.00;;;;;;;;117818;1180;25710;-62
2023/03/29 05:23:33;;;;;;;;;3.67;3.67;;;;;;;;117847;1187;25487;-62
2023/03/29 05:26:02;;;;;;;;;2.75;2.75;;;;;;;;117493;1180;25530;-61
2023/03/29 05:28:32;;;;;;;;;5.00;4.00;;;;;;;;117804;1181;25406;-62
2023/03/29 05:31:02;;;;;;;;;5.33;4.00;;;;;;;;117814;1181;25182;-61
2023/03/29 05:33:32;;;;;;;;;6.00;4.00;;;;;;;;117825;1181;25086;-62
2023/03/29 05:36:09;;;;;;;;;5.50;3.00;;;;;;;;117457;1186;25495;-64
2023/03/29 05:38:39;;;;;;;;;5.50;3.00;;;;;;;;117804;1193;25135;-59
2023/03/29 05:41:07;;;;;;;;;10.00;3.67;;;;;;;;117481;1193;25517;-65
2023/03/29 05:43:36;;;;;;;;;9.00;5.00;;;;;;;;117743;1180;25475;-66
2023/03/29 05:46:06;;;;;;;;;7.00;3.00;;;;;;;;117783;1181;25549;-58
2023/03/29 05:48:35;;;;;;;;;9.50;6.00;;;;;;;;117402;1184;24989;-59
2023/03/29 05:51:04;;;;;;;;;5.00;4.00;;;;;;;;117680;1193;25486;-60
2023/03/29 05:53:32;;;;;;;;;8.00;5.50;;;;;;;;117834;1181;25303;-60
2023/03/29 05:56:01;;;;;;;;;11.00;5.50;;;;;;;;117795;1181;25510;-60
2023/03/29 05:58:29;;;;;;;;;8.75;6.75;;;;;;;;117900;1182;25131;-61
2023/03/29 06:00:59;;;;;;;;;9.00;7.00;;;;;;;;117811;1193;24728;-61
2023/03/29 06:03:28;;;;;;;;;8.00;7.00;;;;;;;;117807;1193;25564;-61
2023/03/29 06:05:59;;;;;;;;;7.00;6.00;;;;;;;;117767;1180;24999;-61
2023/03/29 06:08:28;;;;;;;;;8.25;5.50;;;;;;;;117779;1181;25252;-61
2023/03/29 06:11:04;;;;;;;;;9.00;6.00;;;;;;;;117817;1180;25168;-61
2023/03/29 06:13:34;;;;;;;;;5.67;5.67;;;;;;;;117716;1193;25211;-63
2023/03/29 06:16:03;;;;;;;;;7.00;7.00;;;;;;;;117781;1180;25371;-61
2023/03/29 06:18:32;;;;;;;;;8.00;6.00;;;;;;;;117776;1180;25255;-61
2023/03/29 06:21:01;;;;;;;;;8.00;4.50;;;;;;;;117800;1180;25437;-61
2023/03/29 06:23:30;;;;;;;;;6.00;4.67;;;;;;;;117464;1190;25035;-62
2023/03/29 06:25:59;;;;;;;;;9.33;6.67;;;;;;;;117781;1193;25377;-62
2023/03/29 06:28:27;;;;;;;;;6.00;6.00;;;;;;;;117441;1180;25645;-62
2023/03/29 06:31:00;;;;;;;;;6.33;6.00;;;;;;;;117750;1184;25198;-62
2023/03/29 06:33:32;;;;;;;;;8.00;5.00;;;;;;;;117737;1180;25199;-63
2023/03/29 06:36:01;;;;;;;;;5.50;4.50;;;;;;;;117442;1180;25065;-63
2023/03/29 06:38:29;;;;;;;;;10.00;7.00;;;;;;;;117443;1193;24739;-65
2023/03/29 06:41:03;;;;;;;;;7.00;6.00;;;;;;;;117802;1181;25493;-66
2023/03/29 06:43:31;;;;;;;;;5.75;5.75;;;;;;;;117729;1190;24733;-65
2023/03/29 06:46:00;;;;;;;;;8.00;7.00;;;;;;;;117717;1180;25033;-65
2023/03/29 06:48:29;;;;;;;;;7.00;7.00;;;;;;;;117519;1193;24934;-69
2023/03/29 06:50:57;;;;;;;;;5.00;5.00;;;;;;;;117706;1193;26400;-72
2023/03/29 06:53:26;;;;;;;;;9.50;5.00;;;;;;;;117724;1186;24959;-71
2023/03/29 06:55:55;;;;;;;;;6.33;5.00;;;;;;;;117810;1180;24982;-68
2023/03/29 06:58:24;;;;;;;;;9.50;7.00;;;;;;;;117521;1193;25680;-65
2023/03/29 07:00:52;;;;;;;;;12.00;7.67;;;;;;;;117473;1180;24773;-65
2023/03/29 07:03:22;;;;;;;;;8.00;7.00;;;;;;;;117803;1190;24991;-63
2023/03/29 07:05:51;;;;;;;;;9.00;7.33;;;;;;;;117838;1186;25488;-63
2023/03/29 07:08:21;;;;;;;;;5.00;5.00;;;;;;;;117805;1180;25336;-60
2023/03/29 07:10:51;;;;;;;;;5.33;5.33;;;;;;;;117795;1180;25412;-61
2023/03/29 07:13:19;;;;;;;;;6.00;6.00;;;;;;;;117460;1180;25506;-61
2023/03/29 07:15:48;;;;;;;;;6.00;5.00;;;;;;;;117701;1181;25020;-64
2023/03/29 07:18:17;;;;;;;;;9.00;6.00;;;;;;;;119098;1185;25565;-62
2023/03/29 07:20:47;;;;;;;;;7.00;6.00;;;;;;;;117512;1180;25331;-59
2023/03/29 07:23:16;;;;;;;;;5.25;5.00;;;;;;;;117804;1181;25252;-61
2023/03/29 07:25:45;;;;;;;;;6.67;6.00;;;;;;;;117783;1193;25684;-61
2023/03/29 07:28:14;;;;;;;;;6.00;5.00;;;;;;;;117794;1193;25431;-61
2023/03/29 07:30:42;;;;;;;;;6.00;5.00;;;;;;;;117801;1193;25119;-61
2023/03/29 07:33:11;;;;;;;;;5.00;5.00;;;;;;;;117790;1180;26393;-61
2023/03/29 07:35:42;;;;;;;;;9.00;4.00;;;;;;;;117790;1180;25014;-61
2023/03/29 07:38:10;;;;;;;;;8.00;6.00;;;;;;;;117794;1180;25006;-61
2023/03/29 07:40:39;;;;;;;;;6.00;5.50;;;;;;;;117841;1184;25047;-61
2023/03/29 07:43:08;;;;;;;;;6.75;5.75;;;;;;;;117807;1181;24868;-61
2023/03/29 07:45:36;;;;;;;;;6.00;4.00;;;;;;;;117807;1193;25518;-61
2023/03/29 07:48:05;;;;;;;;;6.00;6.00;;;;;;;;117765;1180;25691;-61
2023/03/29 07:50:34;;;;;;;;;10.75;7.50;;;;;;;;117507;1193;25369;-61
2023/03/29 07:53:02;;;;;;;;;5.67;5.67;;;;;;;;117805;1180;25809;-61
2023/03/29 07:55:31;;;;;;;;;6.00;4.00;;;;;;;;117541;1193;24888;-61
2023/03/29 07:58:00;;;;;;;;;6.50;4.00;;;;;;;;117751;1184;24707;-61
2023/03/29 08:00:28;;;;;;;;;4.00;4.00;;;;;;;;117501;1186;25568;-61
2023/03/29 08:02:57;;;;;;;;;4.25;3.75;;;;;;;;117773;1193;25147;-61
2023/03/29 08:05:26;;;;;;;;;7.00;5.00;;;;;;;;117779;1190;25310;-61
2023/03/29 08:08:08;;;;;;;;;7.00;6.00;;;;;;;;117516;1181;25304;-61
2023/03/29 08:10:38;;;;;;;;;10.50;6.00;;;;;;;;117790;1187;25228;-61
2023/03/29 08:13:07;;;;;;;;;5.50;5.50;;;;;;;;117502;1193;25387;-61
2023/03/29 08:15:38;;;;;;;;;6.00;5.00;;;;;;;;117802;1180;25554;-61
2023/03/29 08:18:07;;;;;;;;;4.67;4.33;;;;;;;;117807;1180;25706;-61
2023/03/29 08:20:35;;;;;;;;;4.50;3.50;;;;;;;;117815;1180;25335;-61
2023/03/29 08:23:04;;;;;;;;;6.00;5.33;;;;;;;;117799;1180;24846;-62
2023/03/29 08:25:34;;;;;;;;;0.67;0.00;;;;;;;;117547;1180;25332;-61
2023/03/29 08:28:02;;;;;;;;;6.00;6.00;;;;;;;;117787;1180;24872;-61
2023/03/29 08:30:32;;;;;;;;;4.33;4.00;;;;;;;;117769;1181;24659;-61
2023/03/29 08:33:00;;;;;;;;;6.00;5.00;;;;;;;;117777;1180;25680;-62
2023/03/29 08:35:28;;;;;;;;;5.33;4.00;;;;;;;;117820;1180;25510;-62
2023/03/29 08:37:57;;;;;;;;;5.50;4.50;;;;;;;;117794;1181;24863;-61
2023/03/29 08:40:28;;;;;;;;;3.00;3.00;;;;;;;;117789;1181;24788;-62
2023/03/29 08:43:00;;;;;;;;;4.75;4.75;;;;;;;;117822;1192;24764;-62
2023/03/29 08:45:40;;;;;;;;;6.33;4.33;;;;;;;;117780;1184;24810;-62
2023/03/29 08:48:22;;;;;;;;;5.50;5.50;;;;;;;;117787;1192;25509;-62
2023/03/29 08:50:53;;;;;;;;;6.00;4.00;;;;;;;;117702;1184;25048;-62
2023/03/29 08:53:35;;;;;;;;;5.50;4.50;;;;;;;;117764;1193;25165;-62
2023/03/29 08:56:08;;;;;;;;;11.00;6.67;;;;;;;;117787;1181;24755;-62
2023/03/29 08:58:37;;;;;;;;;6.75;6.00;;;;;;;;117818;1192;25653;-61
2023/03/29 09:01:08;;;;;;;;;4.33;4.33;;;;;;;;117792;1192;25245;-61
2023/03/29 09:03:44;;;;;;;;;5.50;5.50;;;;;;;;117490;1181;25619;-61
2023/03/29 09:06:13;;;;;;;;;4.33;4.00;;;;;;;;117814;1180;24847;-61
2023/03/29 09:08:45;;;;;;;;;5.00;4.00;;;;;;;;117520;1191;24972;-61
2023/03/29 09:11:26;;;;;;;;;2.67;2.67;;;;;;;;117801;1181;25094;-61
2023/03/29 09:14:01;;;;;;;;;6.00;5.50;;;;;;;;117530;1193;25606;-61
2023/03/29 09:16:42;;;;;;;;;4.00;4.00;;;;;;;;117749;1180;25839;-62
2023/03/29 09:19:20;;;;;;;;;7.00;6.00;;;;;;;;117780;1193;25401;-62
2023/03/29 09:22:05;;;;;;;;;5.00;3.00;;;;;;;;117782;1193;25564;-62
2023/03/29 09:25:20;;;;;;;;;5.67;4.00;;;;;;;;117768;1185;25032;-61
2023/03/29 09:28:05;;;;;;;;;3.50;3.50;;;;;;;;117612;1193;25532;-61
2023/03/29 09:30:41;;;;;;;;;9.00;6.00;;;;;;;;117801;1193;25580;-61
2023/03/29 09:33:22;;;;;;;;;6.00;4.00;;;;;;;;117780;1193;25575;-61
2023/03/29 09:36:01;;;;;;;;;5.67;3.33;;;;;;;;117821;1180;25566;-62
2023/03/29 09:38:30;;;;;;;;;4.00;4.00;;;;;;;;117798;1186;25286;-62
2023/03/29 09:41:17;;;;;;;;;8.00;5.00;;;;;;;;117821;1180;25573;-60
2023/03/29 09:43:48;;;;;;;;;3.50;3.50;;;;;;;;117813;1180;24761;-61
2023/03/29 09:46:41;;;;;;;;;4.00;4.00;;;;;;;;117842;1181;24797;-61
2023/03/29 09:49:16;;;;;;;;;4.50;4.50;;;;;;;;117722;1180;25434;-62
2023/03/29 09:51:47;;;;;;;;;4.00;3.00;;;;;;;;117823;1180;25255;-61
2023/03/29 09:54:16;;;;;;;;;3.00;3.00;;;;;;;;117793;1180;26484;-62
2023/03/29 09:56:44;;;;;;;;;7.00;5.00;;;;;;;;117832;1184;24773;-62
2023/03/29 09:59:12;;;;;;;;;5.00;3.33;;;;;;;;117790;1180;25624;-62
2023/03/29 10:01:45;;;;;;;;;7.00;5.00;;;;;;;;117815;1180;25078;-62
2023/03/29 10:04:15;;;;;;;;;5.75;5.50;;;;;;;;117762;1181;25604;-62
2023/03/29 10:06:49;;;;;;;;;6.00;5.00;;;;;;;;117823;1180;25061;-62
2023/03/29 10:09:22;;;;;;;;;3.00;2.50;;;;;;;;117853;1193;24994;-61
2023/03/29 10:11:55;;;;;;;;;4.33;3.67;;;;;;;;117769;1180;25866;-62
2023/03/29 10:14:35;;;;;;;;;5.00;5.00;;;;;;;;117481;1180;25455;-61
2023/03/29 10:17:12;;;;;;;;;4.00;3.00;;;;;;;;117811;1180;25637;-62
2023/03/29 10:19:50;;;;;;;;;4.50;3.50;;;;;;;;117813;1180;24899;-62
2023/03/29 10:22:23;;;;;;;;;2.00;2.00;;;;;;;;117520;1180;27033;-61
2023/03/29 10:24:53;;;;;;;;;4.00;3.50;;;;;;;;117773;1180;25667;-61
2023/03/29 10:27:28;;;;;;;;;4.33;3.67;;;;;;;;117477;1191;25480;-61
2023/03/29 10:29:58;;;;;;;;;5.50;3.50;;;;;;;;117780;1186;25333;-63
2023/03/29 10:32:30;;;;;;;;;5.00;4.25;;;;;;;;117497;1181;25569;-69
2023/03/29 10:35:13;;;;;;;;;5.00;5.00;;;;;;;;117786;1191;24782;-64
2023/03/29 10:37:43;;;;;;;;;5.00;5.00;;;;;;;;117678;1181;25698;-62
2023/03/29 10:40:23;;;;;;;;;5.50;2.00;;;;;;;;117421;1181;24965;-62
2023/03/29 10:42:56;;;;;;;;;4.67;4.67;;;;;;;;117620;1180;25202;-61
2023/03/29 10:45:30;;;;;;;;;5.00;5.00;;;;;;;;117551;1180;25437;-61
2023/03/29 10:47:58;;;;;;;;;6.00;5.00;;;;;;;;117787;1193;28807;-61
2023/03/29 10:50:33;;;;;;;;;5.00;5.00;;;;;;;;117795;1180;25619;-61
2023/03/29 10:53:03;;;;;;;;;4.50;4.00;;;;;;;;117763;1193;25453;-62
2023/03/29 10:55:39;;;;;;;;;3.33;3.33;;;;;;;;117624;1180;25149;-64
2023/03/29 10:58:14;;;;;;;;;5.00;5.00;;;;;;;;117622;1193;24772;-65
2023/03/29 11:00:52;;;;;;;;;4.00;4.00;;;;;;;;117918;1180;24999;-63
2023/03/29 11:04:02;;;;;;;;;3.50;3.50;;;;;;;;117523;1193;25365;-62
2023/03/29 11:07:11;;;;;;;;;4.50;4.00;;;;;;;;117508;1180;25096;-61
2023/03/29 11:09:59;;;;;;;;;5.00;3.00;;;;;;;;117790;1184;25588;-61
2023/03/29 11:13:07;;;;;;;;;4.00;3.00;;;;;;;;117480;1185;25332;-61
2023/03/29 11:15:53;;;;;;;;;5.00;4.00;;;;;;;;117805;1180;24753;-60
2023/03/29 11:18:36;;;;;;;;;5.00;4.00;;;;;;;;117833;1180;25625;-60
2023/03/29 11:21:15;;;;;;;;;3.00;3.00;;;;;;;;117820;1193;25082;-60
2023/03/29 11:23:46;;;;;;;;;6.33;5.33;;;;;;;;117797;1193;25536;-60
2023/03/29 11:26:26;;;;;;;;;3.00;2.67;;;;;;;;117780;1181;25569;-61
2023/03/29 11:29:21;;;;;;;;;7.00;7.00;;;;;;;;117789;1193;25112;-61
2023/03/29 11:31:50;;;;;;;;;6.67;5.67;;;;;;;;117818;1180;24758;-61
2023/03/29 11:34:38;;;;;;;;;5.50;5.50;;;;;;;;117550;1193;25379;-60
2023/03/29 11:37:16;;;;;;;;;4.00;3.33;;;;;;;;117823;1181;25568;-61
2023/03/29 11:40:04;;;;;;;;;6.00;5.00;;;;;;;;117822;1180;24995;-62
2023/03/29 11:42:35;;;;;;;;;4.00;4.00;;;;;;;;117794;1180;25676;-61
2023/03/29 11:45:05;;;;;;;;;4.00;4.00;;;;;;;;117780;1193;25466;-61
2023/03/29 11:47:36;;;;;;;;;4.33;4.33;;;;;;;;117501;1181;25128;-61
2023/03/29 11:50:14;;;;;;;;;4.00;4.00;;;;;;;;117793;1193;25230;-61
2023/03/29 11:52:50;;;;;;;;;5.00;4.67;;;;;;;;117773;1180;25339;-62
2023/03/29 11:55:22;;;;;;;;;4.00;4.00;;;;;;;;117512;1180;25703;-61
2023/03/29 11:58:00;;;;;;;;;6.00;5.00;;;;;;;;117490;1180;24929;-61
2023/03/29 12:00:36;;;;;;;;;7.33;4.67;;;;;;;;117782;1180;25630;-61
2023/03/29 12:03:47;;;;;;;;;3.00;3.00;;;;;;;;117776;1180;24678;-61
2023/03/29 12:06:30;;;;;;;;;5.00;3.00;;;;;;;;117605;1180;25396;-61
2023/03/29 12:09:24;;;;;;;;;6.00;5.67;;;;;;;;117793;1193;24910;-61
2023/03/29 12:12:10;;;;;;;;;6.00;4.00;;;;;;;;117780;1193;25679;-61
2023/03/29 12:14:48;;;;;;;;;4.33;4.33;;;;;;;;117424;1180;25672;-62
2023/03/29 12:17:27;;;;;;;;;4.00;4.00;;;;;;;;117455;1180;25505;-62
2023/03/29 12:20:06;;;;;;;;;6.00;3.67;;;;;;;;117434;1180;25413;-61
2023/03/29 12:22:36;;;;;;;;;6.00;3.50;;;;;;;;117436;1180;25546;-61
2023/03/29 12:25:06;;;;;;;;;4.00;4.00;;;;;;;;117414;1184;24926;-61
2023/03/29 12:27:45;;;;;;;;;4.00;3.00;;;;;;;;117436;1183;25605;-61
2023/03/29 12:30:35;;;;;;;;;2.00;2.00;;;;;;;;117408;1193;24732;-61
2023/03/29 12:33:13;;;;;;;;;7.00;5.00;;;;;;;;117417;1180;25426;-62
2023/03/29 12:36:15;;;;;;;;;5.33;3.33;;;;;;;;117387;1189;24881;-61
2023/03/29 12:38:44;;;;;;;;;4.50;4.00;;;;;;;;117272;1191;24818;-61
2023/03/29 12:41:17;;;;;;;;;4.00;4.00;;;;;;;;117443;1180;24909;-61
2023/03/29 12:43:46;;;;;;;;;3.00;3.00;;;;;;;;117466;1180;25010;-61
2023/03/29 12:46:18;;;;;;;;;5.00;5.00;;;;;;;;117457;1181;25315;-62
2023/03/29 12:48:51;;;;;;;;;4.00;4.00;;;;;;;;117442;1187;25229;-62
2023/03/29 12:51:27;;;;;;;;;4.00;2.00;;;;;;;;117441;1180;24788;-60
2023/03/29 12:54:06;;;;;;;;;5.00;3.00;;;;;;;;117461;1180;26013;-60
2023/03/29 12:56:40;;;;;;;;;5.67;5.00;;;;;;;;117440;1193;24980;-61
2023/03/29 12:59:39;;;;;;;;;5.50;5.50;;;;;;;;117440;1180;25121;-61
2023/03/29 13:02:13;;;;;;;;;5.00;5.00;;;;;;;;117367;1181;25504;-62
2023/03/29 13:04:50;;;;;;;;;4.50;4.50;;;;;;;;117417;1180;25451;-62
2023/03/29 13:07:21;;;;;;;;;3.00;3.00;;;;;;;;117417;1193;25620;-62
2023/03/29 13:09:56;;;;;;;;;4.00;4.00;;;;;;;;117514;1180;24942;-62
2023/03/29 13:12:28;;;;;;;;;5.00;5.00;;;;;;;;117479;1185;25022;-61
2023/03/29 13:15:21;;;;;;;;;5.00;4.50;;;;;;;;117507;1182;25337;-62
2023/03/29 13:17:59;;;;;;;;;4.00;4.00;;;;;;;;117710;1181;25651;-59
2023/03/29 13:20:52;;;;;;;;;5.00;4.00;;;;;;;;117726;1180;25269;-61
2023/03/29 13:23:38;;;;;;;;;5.00;5.00;;;;;;;;117761;1180;25267;-61
2023/03/29 13:26:28;;;;;;;;;10.50;4.25;;;;;;;;117516;1193;24919;-61
2023/03/29 13:29:21;;;;;;;;;6.00;4.00;;;;;;;;117771;1180;25511;-61
2023/03/29 13:32:08;;;;;;;;;4.33;3.00;;;;;;;;117716;1193;25336;-61
2023/03/29 13:34:48;;;;;;;;;5.00;5.00;;;;;;;;117746;1182;25576;-61
2023/03/29 13:37:19;;;;;;;;;4.00;4.00;;;;;;;;117493;1183;25574;-62
2023/03/29 13:39:53;;;;;;;;;3.67;3.67;;;;;;;;117823;1180;25600;-60
2023/03/29 13:42:44;;;;;;;;;3.00;2.00;;;;;;;;117448;1193;24719;-61
2023/03/29 13:45:26;;;;;;;;;4.00;3.50;;;;;;;;117623;1181;25388;-62
2023/03/29 13:48:01;;;;;;;;;3.50;3.50;;;;;;;;117465;1183;25173;-61
2023/03/29 13:50:53;;;;;;;;;5.00;3.67;;;;;;;;117759;1193;24708;-60
2023/03/29 13:53:32;;;;;;;;;6.75;2.50;;;;;;;;117823;1186;24928;-60
2023/03/29 13:56:01;;;;;;;;;3.67;2.33;;;;;;;;117740;1193;25069;-65
2023/03/29 13:58:42;;;;;;;;;6.33;6.00;;;;;;;;117799;1181;25510;-65
2023/03/29 14:01:16;;;;;;;;;7.00;5.00;;;;;;;;117783;1180;24988;-63
2023/03/29 14:03:47;;;;;;;;;5.00;5.00;;;;;;;;117787;1180;25297;-63
2023/03/29 14:06:25;;;;;;;;;7.50;6.50;;;;;;;;117864;1187;24986;-64
2023/03/29 14:08:54;;;;;;;;;1.67;1.67;;;;;;;;117815;1180;25838;-64
2023/03/29 14:11:27;;;;;;;;;6.00;5.00;;;;;;;;117461;1180;25192;-65
2023/03/29 14:13:58;;;;;;;;;8.00;8.00;;;;;;;;117724;1181;24850;-66
2023/03/29 14:16:38;;;;;;;;;14.25;9.25;;;;;;;;117461;1180;25197;-63
2023/03/29 14:19:14;;;;;;;;;10.50;8.50;;;;;;;;117724;1193;25223;-65
2023/03/29 14:21:44;;;;;;;;;11.00;8.00;;;;;;;;117802;1180;25447;-64
2023/03/29 14:24:19;;;;;;;;;10.00;8.00;;;;;;;;117828;1189;25213;-63
2023/03/29 14:26:48;;;;;;;;;7.75;6.75;;;;;;;;117536;1180;24737;-62
2023/03/29 14:29:17;;;;;;;;;8.50;6.00;;;;;;;;117837;1180;25117;-61
2023/03/29 14:31:45;;;;;;;;;6.50;6.00;;;;;;;;117718;1190;25581;-61
2023/03/29 14:34:16;;;;;;;;;8.67;7.67;;;;;;;;117719;1193;25296;-63
2023/03/29 14:36:47;;;;;;;;;7.00;7.00;;;;;;;;117792;1181;25277;-63
2023/03/29 14:39:19;;;;;;;;;10.00;6.00;;;;;;;;117788;1193;24883;-65
2023/03/29 14:41:51;;;;;;;;;6.50;5.00;;;;;;;;117808;1187;24807;-62
2023/03/29 14:44:21;;;;;;;;;7.00;5.00;;;;;;;;117776;1180;25513;-63
2023/03/29 14:46:50;;;;;;;;;7.00;5.00;;;;;;;;117713;1180;25052;-63
2023/03/29 14:49:19;;;;;;;;;8.00;7.00;;;;;;;;117385;1183;24707;-64
2023/03/29 14:51:49;;;;;;;;;7.00;5.50;;;;;;;;117410;1181;24889;-64
2023/03/29 14:54:30;;;;;;;;;6.67;6.67;;;;;;;;117505;1181;25471;-64
2023/03/29 14:57:02;;;;;;;;;4.00;3.00;;;;;;;;117476;1182;24896;-64
2023/03/29 14:59:36;;;;;;;;;6.50;5.00;;;;;;;;117494;1181;25560;-62
2023/03/29 15:02:25;;;;;;;;;6.67;4.67;;;;;;;;117486;1193;25460;-64
2023/03/29 15:05:02;;;;;;;;;6.50;5.00;;;;;;;;117750;1180;25266;-66
2023/03/29 15:07:35;;;;;;;;;5.00;4.00;;;;;;;;117648;1189;25115;-65